• Join FlightAware (Why Join?)
  • Login
  • US Flag 
01:41PM EDT


 

Airport Tracker/Info


-or-


 

Live Flight TrackerFlight Track Log ✈ TAM3724 ✈ 15-Sep-2013 ✈ SBSP / CGH - SBBR / BSB

Flight Track Log - Related Links

Times and Time Zones

All times are in EDT time to prevent confusion due to time zone crossing. See the TAM3724 flight status page for this flight to view local times or setup timezone preferences in your user account.

Time Position Orientation Groundspeed Altitude Reporting Facility
EDT Latitude Longitude Course Direction KTS MPH feet Rate Location/Type
07:33PM -21.4617 -47.0189 351° North  Level Estimated
07:34PM -21.3715 -47.0338 351° North  Level Estimated
07:35PM -21.2813 -47.0487 351° North  Level Estimated
07:36PM -21.1910 -47.0636 351° North  Level Estimated
07:37PM -21.1008 -47.0784 351° North  Level Estimated
07:38PM -21.0106 -47.0933 351° North  Level Estimated
07:39PM -20.9204 -47.1081 351° North  Level Estimated
07:40PM -20.8301 -47.1229 351° North  Level Estimated
07:41PM -20.7399 -47.1377 351° North  Level Estimated
07:42PM -20.6497 -47.1524 351° North  Level Estimated
07:43PM -20.5594 -47.1672 351° North  Level Estimated
07:44PM -20.4692 -47.1819 351° North  Level Estimated
07:45PM -20.3790 -47.1966 351° North  Level Estimated
07:46PM -20.2887 -47.2113 351° North  Level Estimated
07:47PM -20.1985 -47.2260 351° North  Level Estimated
07:48PM -20.1082 -47.2406 351° North  Level Estimated
07:49PM -20.0180 -47.2553 351° North  Level Estimated
07:50PM -19.9277 -47.2699 351° North  Level Estimated
07:51PM -19.8375 -47.2845 351° North  Level Estimated
07:52PM -19.7472 -47.2991 351° North  Level Estimated
07:53PM -19.6570 -47.3137 351° North  Level Estimated
07:54PM -19.5667 -47.3282 351° North  Level Estimated
07:55PM -19.4646 -47.3447 351° North  Level Estimated
07:56PM -19.3625 -47.3611 351° North  Level Estimated
07:57PM -19.2604 -47.3775 351° North  Level Estimated
07:58PM -19.1582 -47.3939 351° North  Level Estimated
07:59PM -19.0561 -47.4103 351° North  Level Estimated
08:00PM -18.9540 -47.4266 351° North  Level Estimated
08:01PM -18.8518 -47.4430 351° North  Level Estimated
08:02PM -18.7497 -47.4593 351° North  Level Estimated
08:03PM -18.6476 -47.4756 351° North  Level Estimated
08:04PM -18.5454 -47.4918 351° North  Level Estimated
08:05PM -18.4433 -47.5081 351° North  Level Estimated
08:06PM -18.3411 -47.5243 351° North  Level Estimated
08:07PM -18.2390 -47.5405 351° North  Level Estimated
08:08PM -18.1369 -47.5567 351° North  Level Estimated
08:09PM -18.0347 -47.5729 351° North  Level Estimated
08:10PM -17.9326 -47.5891 351° North  Level Estimated
08:11PM -17.8304 -47.6052 351° North  Level Estimated
08:12PM -17.7283 -47.6213 351° North  Level Estimated
08:13PM -17.6261 -47.6374 351° North  Level Estimated
08:14PM -17.5240 -47.6535 351° North  Level Estimated
08:15PM -17.4218 -47.6696 351° North  Level Estimated
08:16PM -17.3197 -47.6856 351° North  Level Estimated
08:17PM -17.2175 -47.7017 351° North  Level Estimated
08:18PM -17.1153 -47.7177 351° North  Level Estimated
08:19PM -17.0132 -47.7337 351° North  Level Estimated
08:20PM -16.9110 -47.7497 351° North  Level Estimated
08:21PM -16.8089 -47.7656 351° North  Level Estimated
08:22PM -16.7067 -47.7816 351° North  Level Estimated
08:23PM -16.6045 -47.7975 352° North  Level Estimated
08:24PM -16.5024 -47.8134 352° North  Level Estimated
08:25PM -16.4002 -47.8293 352° North  Level Estimated
08:26PM -16.2980 -47.8452 352° North  Level Estimated
08:27PM -16.1959 -47.8610 352° North  Level Estimated
08:28PM -16.0937 -47.8769 352° North  Level Estimated
08:29PM -15.9915 -47.8927 352° North  Level Estimated
08:30PM -15.8894 -47.9085 352° North  Level Estimated
08:31PM -15.8626 -47.9127 352° North  Level Estimated
08:32PM -15.8626 -47.9127 128° Southeast  Level Estimated
08:33PM -15.8626 -47.9127 128° Southeast  Level Estimated
08:34PM -15.8626 -47.9127 128° Southeast  Level Estimated
08:35PM -15.8626 -47.9127 128° Southeast  Level Estimated
08:36PM -15.8626 -47.9127 128° Southeast  Level Estimated
08:37PM -15.8626 -47.9127 128° Southeast  Level Estimated
08:38PM -15.8626 -47.9127 128° Southeast  Level Estimated
08:39PM -15.8626 -47.9127 128° Southeast  Level Estimated
08:40PM -15.8626 -47.9127 128° Southeast  Level Estimated
08:41PM -15.8626 -47.9127 128° Southeast  Level Estimated